createdAt,value
2018-11-03T00:00:21.601Z,14.60
2018-11-03T00:02:51.769Z,12.53
2018-11-03T00:05:22.012Z,11.12
2018-11-03T00:07:52.254Z,10.48
2018-11-03T00:10:44.450Z,10.48
2018-11-03T00:13:42.580Z,10.23
2018-11-03T00:16:13.086Z,12.45
2018-11-03T00:18:43.108Z,12.05
2018-11-03T00:21:13.042Z,10.50
2018-11-03T00:23:43.113Z,11.05
2018-11-03T00:26:47.504Z,11.65
2018-11-03T00:29:54.251Z,11.57
2018-11-03T00:33:04.047Z,15.43
2018-11-03T00:35:40.604Z,12.30
2018-11-03T00:38:40.283Z,10.45
2018-11-03T00:41:11.738Z,10.58
2018-11-03T00:43:41.764Z,12.37
2018-11-03T00:47:10.215Z,10.60
2018-11-03T00:49:50.585Z,12.00
2018-11-03T00:52:20.900Z,11.95
2018-11-03T00:55:06.811Z,11.63
2018-11-03T00:57:36.840Z,10.20
2018-11-03T01:00:10.394Z,10.75
2018-11-03T01:02:46.274Z,10.30
2018-11-03T01:05:58.881Z,12.78
2018-11-03T01:08:29.007Z,11.25
2018-11-03T01:10:59.085Z,9.58
2018-11-03T01:13:30.852Z,9.75
2018-11-03T01:16:01.754Z,9.63
2018-11-03T01:18:55.222Z,9.00
2018-11-03T01:21:25.834Z,9.85
2018-11-03T01:23:56.822Z,11.45
2018-11-03T01:26:29.543Z,10.55
2018-11-03T01:28:59.611Z,10.93
2018-11-03T01:31:30.793Z,13.98
2018-11-03T01:34:01.665Z,10.50
2018-11-03T01:36:31.692Z,15.00
2018-11-03T01:39:01.783Z,11.03
2018-11-03T01:41:58.325Z,11.22
2018-11-03T01:44:28.393Z,9.93
2018-11-03T01:46:58.507Z,11.65
2018-11-03T01:49:28.524Z,9.63
2018-11-03T01:51:58.568Z,10.48
2018-11-03T01:54:57.778Z,9.03
2018-11-03T01:57:27.795Z,10.20
2018-11-03T01:59:57.822Z,11.05
2018-11-03T02:02:29.050Z,11.50
2018-11-03T02:05:01.335Z,12.65
2018-11-03T02:07:31.346Z,11.80
2018-11-03T02:10:01.407Z,9.45
2018-11-03T02:15:49.792Z,11.28
2018-11-03T02:18:19.828Z,10.15
2018-11-03T02:20:49.906Z,11.70
2018-11-03T02:23:26.574Z,10.48
2018-11-03T02:27:10.790Z,10.10
2018-11-03T02:29:42.178Z,9.83
2018-11-03T02:32:12.296Z,9.40
2018-11-03T02:34:43.677Z,11.60
2018-11-03T02:37:14.597Z,10.55
2018-11-03T02:39:45.239Z,10.63
2018-11-03T02:42:15.477Z,10.32
2018-11-03T02:44:45.454Z,10.85
2018-11-03T02:47:16.512Z,11.68
2018-11-03T02:49:46.658Z,10.08
2018-11-03T02:52:16.635Z,10.35
2018-11-03T02:54:46.798Z,11.75
2018-11-03T02:57:16.844Z,13.30
2018-11-03T02:59:46.847Z,13.08
2018-11-03T03:02:17.294Z,10.65
2018-11-03T03:04:47.356Z,13.72
2018-11-03T03:07:17.601Z,10.88
2018-11-03T03:09:47.812Z,10.65
2018-11-03T03:12:17.808Z,12.68
2018-11-03T03:14:47.793Z,10.93
2018-11-03T03:17:20.897Z,11.95
2018-11-03T03:19:50.990Z,12.33
2018-11-03T03:22:20.932Z,10.70
2018-11-03T03:24:50.893Z,9.75
2018-11-03T03:27:21.998Z,10.43
2018-11-03T03:29:53.584Z,12.70
2018-11-03T03:32:23.803Z,11.50
2018-11-03T03:34:53.767Z,9.45
2018-11-03T03:37:23.813Z,9.85
2018-11-03T03:39:53.892Z,10.72
2018-11-03T03:42:24.180Z,10.00
2018-11-03T03:44:54.196Z,12.85
2018-11-03T03:47:24.621Z,9.65
2018-11-03T03:49:54.804Z,9.78
2018-11-03T03:52:24.954Z,9.63
2018-11-03T03:54:55.093Z,10.43
2018-11-03T03:57:25.199Z,10.93
2018-11-03T03:59:55.237Z,12.35
2018-11-03T04:02:25.387Z,13.68
2018-11-03T04:04:55.500Z,14.40
2018-11-03T04:07:25.573Z,14.40
2018-11-03T04:09:55.621Z,13.62
2018-11-03T04:12:25.637Z,13.48
2018-11-03T04:14:55.663Z,11.88
2018-11-03T04:17:25.750Z,15.23
2018-11-03T04:19:55.885Z,12.80
2018-11-03T04:22:26.287Z,15.63
2018-11-03T04:24:56.312Z,13.90
2018-11-03T04:27:26.965Z,12.95
2018-11-03T04:29:56.939Z,18.90
2018-11-03T04:32:27.109Z,13.38
2018-11-03T04:34:57.165Z,12.20
2018-11-03T04:37:27.197Z,12.35
2018-11-03T04:39:57.273Z,12.05
2018-11-03T04:42:27.397Z,13.72
2018-11-03T04:44:57.501Z,12.82
2018-11-03T04:47:27.905Z,11.80
2018-11-03T04:49:58.164Z,11.55
2018-11-03T04:52:28.195Z,12.43
2018-11-03T04:54:58.285Z,13.90
2018-11-03T04:57:28.553Z,15.00
2018-11-03T04:59:58.651Z,15.80
2018-11-03T05:02:28.824Z,14.47
2018-11-03T05:04:58.941Z,16.65
2018-11-03T05:07:29.064Z,12.18
2018-11-03T05:09:59.563Z,11.75
2018-11-03T05:12:29.845Z,12.88
2018-11-03T05:15:00.012Z,15.00
2018-11-03T05:17:30.036Z,12.40
2018-11-03T05:20:00.066Z,12.70
2018-11-03T05:22:30.076Z,11.43
2018-11-03T05:25:00.176Z,14.83
2018-11-03T05:27:30.228Z,13.88
2018-11-03T05:30:00.264Z,14.25
2018-11-03T05:32:30.399Z,13.50
2018-11-03T05:35:00.416Z,13.80
2018-11-03T05:37:30.524Z,13.90
2018-11-03T05:40:00.564Z,13.22
2018-11-03T05:42:30.717Z,15.05
2018-11-03T05:45:00.721Z,14.10
2018-11-03T05:47:30.704Z,15.08
2018-11-03T05:50:00.803Z,17.02
2018-11-03T05:52:30.912Z,18.25
2018-11-03T05:55:01.000Z,15.88
2018-11-03T05:57:31.104Z,15.78
2018-11-03T06:00:01.254Z,15.53
2018-11-03T06:02:31.377Z,14.20
2018-11-03T06:05:01.401Z,14.10
2018-11-03T06:07:31.525Z,14.35
2018-11-03T06:10:01.725Z,15.25
2018-11-03T06:12:31.720Z,17.05
2018-11-03T06:15:02.302Z,12.80
2018-11-03T06:17:32.362Z,16.05
2018-11-03T06:20:02.412Z,14.75
2018-11-03T06:22:32.549Z,16.75
2018-11-03T06:25:02.649Z,14.95
2018-11-03T06:27:32.689Z,13.48
2018-11-03T06:30:02.851Z,16.67
2018-11-03T06:32:33.265Z,16.30
2018-11-03T06:35:03.804Z,17.70
2018-11-03T06:37:34.008Z,16.48
2018-11-03T06:40:04.210Z,16.85
2018-11-03T06:42:34.274Z,15.63
2018-11-03T06:45:05.021Z,16.95
2018-11-03T06:47:38.252Z,18.62
2018-11-03T06:50:09.029Z,15.98
2018-11-03T06:52:39.336Z,14.53
2018-11-03T06:55:09.673Z,16.12
2018-11-03T06:57:39.929Z,17.67
2018-11-03T07:00:14.606Z,17.50
2018-11-03T07:02:44.738Z,19.52
2018-11-03T07:05:14.854Z,17.17
2018-11-03T07:07:49.117Z,20.45
2018-11-03T07:10:19.047Z,15.70
2018-11-03T07:12:49.224Z,17.95
2018-11-03T07:15:19.267Z,18.75
2018-11-03T07:17:49.355Z,18.02
2018-11-03T07:20:19.375Z,22.58
2018-11-03T07:22:49.473Z,20.23
2018-11-03T07:25:19.468Z,20.00
2018-11-03T07:27:53.401Z,22.98
2018-11-03T07:30:23.503Z,20.48
2018-11-03T07:32:53.689Z,24.07
2018-11-03T07:35:23.815Z,26.35
2018-11-03T07:37:53.912Z,23.27
2018-11-03T07:40:23.863Z,26.23
2018-11-03T07:45:36.695Z,23.60
2018-11-03T07:48:06.835Z,30.90
2018-11-03T07:50:36.828Z,30.52
2018-11-03T07:53:10.438Z,27.60
2018-11-03T07:55:41.114Z,25.85
2018-11-03T07:58:12.000Z,29.67
2018-11-03T08:00:42.307Z,34.45
2018-11-03T08:03:12.310Z,31.80
2018-11-03T08:05:42.367Z,33.23
2018-11-03T08:08:13.349Z,34.27
2018-11-03T08:10:43.408Z,33.08
2018-11-03T08:13:13.498Z,34.78
2018-11-03T08:15:43.721Z,34.85
2018-11-03T08:18:13.775Z,31.52
2018-11-03T08:20:44.024Z,34.63
2018-11-03T08:23:14.861Z,34.95
2018-11-03T08:25:45.149Z,34.43
2018-11-03T08:28:15.135Z,37.23
2018-11-03T08:30:45.195Z,41.40
2018-11-03T08:33:15.289Z,39.05
2018-11-03T08:35:56.641Z,38.90
2018-11-03T08:38:36.532Z,37.58
2018-11-03T08:41:12.182Z,37.53
2018-11-03T08:43:53.704Z,38.48
2018-11-03T08:46:25.440Z,38.95
2018-11-03T08:48:55.737Z,35.70
2018-11-03T08:51:25.936Z,39.40
2018-11-03T08:53:55.911Z,37.73
2018-11-03T08:56:26.058Z,33.10
2018-11-03T08:58:56.093Z,38.25
2018-11-03T09:01:26.546Z,41.10
2018-11-03T09:03:56.580Z,41.15
2018-11-03T09:06:26.690Z,40.43
2018-11-03T09:08:56.655Z,34.50
2018-11-03T09:11:26.910Z,37.13
2018-11-03T09:13:56.940Z,33.92
2018-11-03T09:16:27.001Z,36.13
2018-11-03T09:18:57.033Z,36.83
2018-11-03T09:21:27.048Z,37.65
2018-11-03T09:23:57.085Z,35.88
2018-11-03T09:26:27.078Z,28.42
2018-11-03T09:28:57.239Z,29.40
2018-11-03T09:31:27.265Z,25.92
2018-11-03T09:33:57.381Z,29.32
2018-11-03T09:36:27.367Z,27.45
2018-11-03T09:38:57.457Z,26.42
2018-11-03T09:41:27.474Z,24.98
2018-11-03T09:43:57.477Z,26.52
2018-11-03T09:46:27.905Z,24.63
2018-11-03T09:48:57.944Z,24.98
2018-11-03T09:51:28.148Z,23.38
2018-11-03T09:53:58.108Z,23.97
2018-11-03T09:56:28.238Z,26.07
2018-11-03T09:58:58.341Z,24.90
2018-11-03T10:01:28.378Z,21.87
2018-11-03T10:03:58.425Z,27.80
2018-11-03T10:06:28.539Z,22.47
2018-11-03T10:08:58.636Z,21.30
2018-11-03T10:11:28.672Z,21.93
2018-11-03T10:13:58.838Z,20.53
2018-11-03T10:16:28.825Z,21.27
2018-11-03T10:18:58.856Z,19.43
2018-11-03T10:21:28.924Z,21.50
2018-11-03T10:23:58.898Z,19.80
2018-11-03T10:26:28.957Z,25.00
2018-11-03T10:28:58.912Z,19.07
2018-11-03T10:31:29.038Z,18.00
2018-11-03T10:33:59.354Z,19.20
2018-11-03T10:36:29.409Z,15.53
2018-11-03T10:38:59.655Z,17.93
2018-11-03T10:41:29.691Z,15.97
2018-11-03T10:43:59.776Z,14.10
2018-11-03T10:46:30.082Z,13.43
2018-11-03T10:48:59.992Z,14.77
2018-11-03T10:51:29.987Z,15.07
2018-11-03T10:54:00.164Z,14.07
2018-11-03T10:56:30.229Z,14.03
2018-11-03T10:59:00.296Z,12.13
2018-11-03T11:01:35.410Z,12.07
2018-11-03T11:04:10.393Z,10.70
2018-11-03T11:06:45.448Z,9.63
2018-11-03T11:09:20.388Z,7.80
2018-11-03T11:11:55.525Z,7.47
2018-11-03T11:14:25.699Z,8.07
2018-11-03T11:16:55.716Z,9.20
2018-11-03T11:19:25.608Z,7.10
2018-11-03T11:21:55.563Z,8.37
2018-11-03T11:24:25.739Z,7.80
2018-11-03T11:26:55.754Z,12.37
2018-11-03T11:29:38.445Z,7.50
2018-11-03T11:32:08.609Z,6.63
2018-11-03T11:34:38.806Z,10.40
2018-11-03T11:37:08.945Z,8.67
2018-11-03T11:39:38.957Z,7.70
2018-11-03T11:42:09.953Z,6.90
2018-11-03T11:44:39.992Z,7.50
2018-11-03T11:47:10.586Z,4.37
2018-11-03T11:49:40.806Z,5.40
2018-11-03T11:52:10.861Z,4.60
2018-11-03T11:54:40.924Z,3.90
2018-11-03T11:57:10.876Z,5.60
2018-11-03T11:59:41.211Z,3.67
2018-11-03T12:02:11.309Z,6.77
2018-11-03T12:04:41.688Z,4.70
2018-11-03T12:07:11.807Z,4.40
2018-11-03T12:09:41.916Z,8.53
2018-11-03T12:12:11.982Z,6.63
2018-11-03T12:14:42.008Z,3.93
2018-11-03T12:17:12.095Z,5.10
2018-11-03T12:19:42.092Z,6.97
2018-11-03T12:22:13.527Z,4.60
2018-11-03T12:24:43.507Z,5.60
2018-11-03T12:27:13.458Z,3.60
2018-11-03T12:29:43.550Z,5.97
2018-11-03T12:32:13.588Z,4.90
2018-11-03T12:34:43.655Z,5.30
2018-11-03T12:50:32.204Z,8.30
2018-11-03T12:53:03.065Z,6.00
2018-11-03T12:55:33.249Z,6.97
2018-11-03T12:58:03.281Z,4.53
2018-11-03T13:00:33.301Z,7.93
2018-11-03T13:03:03.399Z,6.30
2018-11-03T13:05:33.679Z,8.90
2018-11-03T13:08:26.032Z,4.83
2018-11-03T13:10:56.499Z,8.43
2018-11-03T13:13:26.647Z,5.60
2018-11-03T13:15:56.832Z,4.80
2018-11-03T13:18:34.118Z,7.90
2018-11-03T13:21:21.911Z,4.97
2018-11-03T13:23:57.225Z,6.40
2018-11-03T13:26:27.404Z,7.30
2018-11-03T13:30:00.421Z,7.73
2018-11-03T13:32:50.437Z,7.67
2018-11-03T13:35:20.672Z,4.73
2018-11-03T13:37:50.702Z,5.63
2018-11-03T13:40:27.998Z,6.07
2018-11-03T13:43:01.508Z,6.40
2018-11-03T13:45:35.406Z,5.60
2018-11-03T13:48:05.669Z,7.40
2018-11-03T13:50:35.872Z,5.47
2018-11-03T13:53:08.073Z,5.00
2018-11-03T13:55:38.482Z,6.30
2018-11-03T13:58:08.715Z,3.83
2018-11-03T14:00:39.928Z,4.63
2018-11-03T14:03:10.058Z,5.63
2018-11-03T14:05:40.169Z,3.33
2018-11-03T14:08:10.227Z,6.00
2018-11-03T14:10:40.301Z,3.20
2018-11-03T14:13:10.350Z,2.87
2018-11-03T14:15:40.685Z,3.83
2018-11-03T14:18:10.660Z,2.90
2018-11-03T14:20:40.706Z,7.10
2018-11-03T14:23:10.835Z,2.07
2018-11-03T14:25:40.899Z,3.70
2018-11-03T14:28:13.123Z,2.37
2018-11-03T14:30:44.327Z,5.10
2018-11-03T14:33:14.392Z,3.60
2018-11-03T14:35:45.435Z,3.77
2018-11-03T14:38:15.692Z,4.23
2018-11-03T14:40:45.797Z,2.93
2018-11-03T14:43:17.350Z,3.43
2018-11-03T14:45:47.353Z,2.53
2018-11-03T14:48:41.990Z,3.57
2018-11-03T14:51:15.751Z,2.07
2018-11-03T15:12:35.073Z,8.17
2018-11-03T15:15:05.282Z,6.03
2018-11-03T15:17:35.405Z,5.53
2018-11-03T15:20:06.387Z,5.20
2018-11-03T15:22:37.015Z,3.50
2018-11-03T15:25:07.989Z,3.50
2018-11-03T15:27:47.051Z,4.80
2018-11-03T15:30:17.080Z,6.33
2018-11-03T15:32:47.240Z,7.63
2018-11-03T15:35:17.365Z,7.42
2018-11-03T15:37:47.364Z,5.43
2018-11-03T15:40:17.863Z,4.77
2018-11-03T15:42:47.832Z,4.93
2018-11-03T15:45:18.567Z,7.13
2018-11-03T15:47:48.600Z,6.03
2018-11-03T15:50:18.490Z,6.83
2018-11-03T15:52:48.329Z,5.27
2018-11-03T15:55:18.215Z,9.37
2018-11-03T15:57:48.745Z,6.03
2018-11-03T16:00:21.957Z,5.43
2018-11-03T16:03:22.188Z,6.10
2018-11-03T16:05:52.269Z,5.03
2018-11-03T16:08:22.268Z,5.20
2018-11-03T16:11:27.182Z,5.90
2018-11-03T16:13:57.328Z,5.80
2018-11-03T16:16:32.517Z,7.47
2018-11-03T16:19:03.415Z,6.47
2018-11-03T16:21:33.400Z,8.47
2018-11-03T16:24:03.336Z,8.90
2018-11-03T16:26:33.454Z,11.00
2018-11-03T16:29:03.416Z,7.90
2018-11-03T16:31:33.462Z,9.57
2018-11-03T16:34:03.556Z,9.13
2018-11-03T16:36:33.694Z,9.73
2018-11-03T16:39:04.800Z,11.57
2018-11-03T16:41:34.833Z,12.30
2018-11-03T16:44:05.016Z,13.40
2018-11-03T16:46:35.430Z,9.73
2018-11-03T16:49:08.029Z,11.10
2018-11-03T16:51:38.193Z,9.20
2018-11-03T16:54:08.324Z,11.67
2018-11-03T16:56:54.662Z,9.33
2018-11-03T16:59:29.506Z,9.63
2018-11-03T17:01:59.864Z,10.10
2018-11-03T17:04:30.899Z,10.97
2018-11-03T17:07:00.927Z,8.93
2018-11-03T17:09:32.162Z,9.43
2018-11-03T17:12:02.267Z,16.40
2018-11-03T17:14:32.617Z,10.67
2018-11-03T17:17:10.763Z,11.50
2018-11-03T17:19:43.462Z,13.40
2018-11-03T17:22:13.814Z,13.50
2018-11-03T17:27:53.636Z,12.83
2018-11-03T17:30:26.313Z,12.80
2018-11-03T17:32:56.808Z,11.70
2018-11-03T17:35:27.038Z,12.27
2018-11-03T17:37:57.583Z,13.35
2018-11-03T17:40:27.668Z,15.67
2018-11-03T17:42:57.823Z,17.20
2018-11-03T17:45:28.075Z,14.90
2018-11-03T17:47:58.104Z,13.83
2018-11-03T17:50:56.848Z,14.73
2018-11-03T17:53:27.194Z,15.10
2018-11-03T17:55:57.317Z,15.75
2018-11-03T17:58:44.754Z,12.37
2018-11-03T18:07:34.207Z,17.20
2018-11-03T18:10:12.035Z,15.58
2018-11-03T18:12:42.810Z,15.98
2018-11-03T18:15:17.057Z,22.37
2018-11-03T18:17:48.804Z,30.00
2018-11-03T18:20:19.246Z,23.02
2018-11-03T18:22:49.765Z,20.40
2018-11-03T18:28:23.972Z,18.65
2018-11-03T18:30:54.821Z,18.90
2018-11-03T18:36:40.591Z,17.80
2018-11-03T18:39:11.593Z,18.52
2018-11-03T18:41:43.593Z,19.00
2018-11-03T18:44:43.474Z,19.90
2018-11-03T18:47:23.804Z,16.27
2018-11-03T18:49:57.536Z,17.57
2018-11-03T18:52:28.377Z,18.70
2018-11-03T18:55:00.007Z,24.95
2018-11-03T18:57:30.168Z,26.60
2018-11-03T19:00:19.877Z,19.12
2018-11-03T19:02:52.691Z,16.35
2018-11-03T19:05:26.183Z,14.35
2018-11-03T19:08:09.057Z,18.95
2018-11-03T19:10:47.536Z,16.42
2018-11-03T19:16:30.873Z,17.00
2018-11-03T19:25:13.826Z,17.35
2018-11-03T19:27:44.081Z,16.62
2018-11-03T19:30:19.244Z,15.15
2018-11-03T19:32:49.635Z,15.78
2018-11-03T19:38:30.095Z,19.12
2018-11-03T19:41:20.633Z,17.45
2018-11-03T19:43:58.839Z,18.92
2018-11-03T19:46:29.140Z,24.23
2018-11-03T19:49:17.692Z,21.25
2018-11-03T19:51:48.080Z,17.23
2018-11-03T20:00:36.872Z,16.60
2018-11-03T20:03:08.273Z,20.75
2018-11-03T20:05:56.894Z,16.42
2018-11-03T20:11:33.610Z,18.57
2018-11-03T20:17:16.151Z,19.87
2018-11-03T20:23:08.248Z,17.17
2018-11-03T20:25:39.182Z,23.98
2018-11-03T20:28:12.860Z,19.35
2018-11-03T20:30:43.754Z,17.50
2018-11-03T20:33:26.087Z,18.30
2018-11-03T20:39:11.205Z,20.65
2018-11-03T20:41:46.888Z,15.53
2018-11-03T20:44:16.980Z,15.32
2018-11-03T20:49:47.437Z,13.55
2018-11-03T20:52:35.508Z,17.40
2018-11-03T20:58:31.926Z,15.43
2018-11-03T21:01:12.226Z,15.25
2018-11-03T21:03:44.652Z,16.67
2018-11-03T21:12:19.943Z,16.65
2018-11-03T21:14:50.535Z,20.90
2018-11-03T21:20:55.419Z,16.37
2018-11-03T21:23:51.473Z,14.63
2018-11-03T21:30:22.907Z,15.85
2018-11-03T21:32:53.079Z,14.95
2018-11-03T21:35:23.059Z,14.50
2018-11-03T21:38:10.556Z,15.28
2018-11-03T21:54:46.230Z,18.20
2018-11-03T22:00:22.685Z,15.83
2018-11-03T22:02:52.973Z,15.23
2018-11-03T22:05:29.805Z,16.48
2018-11-03T22:08:01.745Z,14.60
2018-11-03T22:10:33.969Z,14.10
2018-11-03T22:13:04.068Z,17.02
2018-11-03T22:19:00.974Z,16.60
2018-11-03T22:21:31.715Z,16.75
2018-11-03T22:24:02.370Z,17.10
2018-11-03T22:35:19.297Z,17.65
2018-11-03T22:41:48.744Z,15.78
2018-11-03T22:44:19.014Z,15.13
2018-11-03T22:46:54.609Z,15.23
2018-11-03T22:55:27.691Z,19.15
2018-11-03T22:57:57.790Z,13.88
2018-11-03T23:00:28.114Z,15.53
2018-11-03T23:03:06.281Z,15.88
2018-11-03T23:05:45.998Z,19.37
2018-11-03T23:08:21.526Z,17.15
2018-11-03T23:10:51.621Z,17.73
2018-11-03T23:13:21.815Z,23.60
2018-11-03T23:15:55.254Z,15.78
2018-11-03T23:18:25.555Z,16.30
2018-11-03T23:21:08.041Z,23.10
2018-11-03T23:23:38.174Z,21.68
2018-11-03T23:26:40.034Z,26.10
2018-11-03T23:29:10.267Z,20.10
2018-11-03T23:31:43.329Z,22.90
2018-11-03T23:34:13.224Z,30.00
2018-11-03T23:39:53.252Z,20.52
2018-11-03T23:42:23.472Z,21.80
2018-11-03T23:44:53.462Z,22.37
2018-11-03T23:47:24.811Z,20.35
2018-11-03T23:49:55.140Z,27.82
2018-11-03T23:52:30.048Z,21.93
2018-11-03T23:55:01.633Z,26.62
2018-11-03T23:57:32.147Z,24.95
